Detall de PIREP

Printer-friendly versionPDF version

[2012/08/02 12:47:00]
Flight IATA:CT1005
Pilot Number:037
Company ICAO:CAT
Aircraft Type:B752/E
PAX:115
Aircraft Registration:PAX
Departing Airport: LOWS
Destination Airport: EKCH
Alternate Airport:EKBI
Online: VATSIM
Route:SIMBA Y700 ABABI N871 LALIN UL604 RUDNO UL132 RENKI UM725 LABES T298 PEROM T299 KOSEB
Flight Level:F400
No Slew and time accel
No pause
Crash detect
Detect pilot in Cockpit between each 30 and 45 minutes
12:47 Zero fuel Weight: 170502 Lbs, Fuel Weight: 21466 Lbs
12:47 VATSIM:LOWS 021220Z 01006KT 330V040 9999 FEW050 FEW060CB BKN300 29/11 Q1015 NOSIG
12:47 VATSIM:EKCH 021220Z 14015KT CAVOK 22/16 Q1011 NOSIG
12:48 Parking Brakes off
13:05 Take-off
13:05 Take off Weight: 190915 Lbs
13:05 Wind: 011º @ 006 Knots Heading: 338º
13:05 POS N47º 47´ 48´´ E013º 00´ 06´´
13:05 Gear Up: 190 Knots
13:05 Flaps:2 at 190 Knots
13:05 Flaps:1 at 205 Knots
13:05 Flaps:0 at 211 Knots
13:20 Wind:276º@020 Knots Heading: 308º Ground Speed: 459 Knots Altitude 36866 ft
13:24 TOC
13:24 Fuel Weight: 15971 Lb
13:35 Wind:240º@026 Knots Heading: 007º Ground Speed: 493 Knots Altitude 39973 ft
13:50 Wind:255º@027 Knots Heading: 009º Ground Speed: 486 Knots Altitude 39940 ft
14:01 TOD
14:01 Fuel Weight: 12062 Lb
14:05 Wind:155º@025 Knots Heading: 314º Ground Speed: 483 Knots Altitude 26223 ft
14:19 Flaps:1 at 200 Knots
14:20 Wind:136º@022 Knots Heading: 102º Ground Speed: 192 Knots Altitude 2988 ft
14:21 Flaps:2 at 194 Knots
14:22 Flaps:3 at 178 Knots
14:23 Gear Down: 165 Knots
14:24 Flaps:4 at 147 Knots
14:24 Flaps:5 at 139 Knots
14:25 TouchDown:Rate -354 ft/min Speed: 133 Knots
14:26 VATSIM:EKCH 021350Z 13017KT 9999 -SHRA FEW025 SCT050 BKN260 21/17 Q1010 NOSIG
14:26 Land
14:26 Wind:130º@017 Knots
14:26 Heading: 122º
14:26 Flight Duration: 01:21
14:26 Landing Weight: 180555 Lbs
14:26 POS N55º 37´ 01´´ E012º 39´ 29´´
14:29 Parking brakes on
14:29 Block to Block Duration: 01:41
14:29 Final Fuel: 9673 Lbls
14:29 Spent Fuel: 11792 Lbls
14:29 Flight Length: 437 NM
14:29 TOD Land Length: 125 NM

Exportar CSV

Powered by Drupal - Modified by Danger4k